sensor_id;sensor_type;location;lat;lon;timestamp;P1;durP1;ratioP1;P2;durP2;ratioP2
78774;SDS011;68119;43.398;3.676;2023-07-13T00:02:00;7.03;;;2.92;;
78774;SDS011;68119;43.398;3.676;2023-07-13T00:04:26;6.82;;;3.25;;
78774;SDS011;68119;43.398;3.676;2023-07-13T00:06:55;6.97;;;3.00;;
78774;SDS011;68119;43.398;3.676;2023-07-13T00:09:23;7.38;;;3.10;;
78774;SDS011;68119;43.398;3.676;2023-07-13T00:11:56;7.68;;;2.97;;
78774;SDS011;68119;43.398;3.676;2023-07-13T00:14:23;10.48;;;2.95;;
78774;SDS011;68119;43.398;3.676;2023-07-13T00:16:55;4.70;;;2.92;;
78774;SDS011;68119;43.398;3.676;2023-07-13T00:19:28;7.13;;;3.05;;
78774;SDS011;68119;43.398;3.676;2023-07-13T00:21:54;5.80;;;2.83;;
78774;SDS011;68119;43.398;3.676;2023-07-13T00:24:26;7.60;;;2.95;;
78774;SDS011;68119;43.398;3.676;2023-07-13T00:26:57;5.53;;;3.28;;
78774;SDS011;68119;43.398;3.676;2023-07-13T00:29:26;6.22;;;3.25;;
78774;SDS011;68119;43.398;3.676;2023-07-13T00:31:58;4.82;;;2.50;;
78774;SDS011;68119;43.398;3.676;2023-07-13T00:34:29;4.25;;;2.67;;
78774;SDS011;68119;43.398;3.676;2023-07-13T00:36:55;7.22;;;2.97;;
78774;SDS011;68119;43.398;3.676;2023-07-13T00:39:22;7.93;;;3.08;;
78774;SDS011;68119;43.398;3.676;2023-07-13T00:41:51;5.47;;;2.70;;
78774;SDS011;68119;43.398;3.676;2023-07-13T00:44:23;5.55;;;2.80;;
78774;SDS011;68119;43.398;3.676;2023-07-13T00:46:52;4.82;;;2.80;;
78774;SDS011;68119;43.398;3.676;2023-07-13T00:49:23;4.43;;;2.63;;
78774;SDS011;68119;43.398;3.676;2023-07-13T00:52:10;4.93;;;2.70;;
78774;SDS011;68119;43.398;3.676;2023-07-13T00:54:40;5.82;;;2.45;;
78774;SDS011;68119;43.398;3.676;2023-07-13T00:57:10;5.50;;;2.78;;
78774;SDS011;68119;43.398;3.676;2023-07-13T00:59:40;5.70;;;2.85;;
78774;SDS011;68119;43.398;3.676;2023-07-13T01:02:13;4.18;;;2.53;;
78774;SDS011;68119;43.398;3.676;2023-07-13T01:04:42;4.28;;;2.42;;
78774;SDS011;68119;43.398;3.676;2023-07-13T01:07:16;6.47;;;3.13;;
78774;SDS011;68119;43.398;3.676;2023-07-13T01:09:47;4.72;;;2.78;;
78774;SDS011;68119;43.398;3.676;2023-07-13T01:12:19;4.68;;;2.75;;
78774;SDS011;68119;43.398;3.676;2023-07-13T01:14:56;6.30;;;2.72;;
78774;SDS011;68119;43.398;3.676;2023-07-13T01:17:24;5.60;;;2.83;;
78774;SDS011;68119;43.398;3.676;2023-07-13T01:19:56;5.25;;;2.72;;
78774;SDS011;68119;43.398;3.676;2023-07-13T01:22:25;5.78;;;2.85;;
78774;SDS011;68119;43.398;3.676;2023-07-13T01:24:57;5.32;;;2.90;;
78774;SDS011;68119;43.398;3.676;2023-07-13T01:27:26;5.03;;;2.40;;
78774;SDS011;68119;43.398;3.676;2023-07-13T01:29:56;6.18;;;2.70;;
78774;SDS011;68119;43.398;3.676;2023-07-13T01:32:32;5.40;;;2.65;;
78774;SDS011;68119;43.398;3.676;2023-07-13T01:35:03;4.60;;;2.70;;
78774;SDS011;68119;43.398;3.676;2023-07-13T01:37:35;4.07;;;2.65;;
78774;SDS011;68119;43.398;3.676;2023-07-13T01:40:04;6.20;;;2.92;;
78774;SDS011;68119;43.398;3.676;2023-07-13T01:42:37;5.88;;;2.85;;
78774;SDS011;68119;43.398;3.676;2023-07-13T01:45:08;5.03;;;2.53;;
78774;SDS011;68119;43.398;3.676;2023-07-13T01:47:37;6.45;;;2.80;;
78774;SDS011;68119;43.398;3.676;2023-07-13T01:50:07;4.43;;;2.78;;
78774;SDS011;68119;43.398;3.676;2023-07-13T01:52:39;7.05;;;2.80;;
78774;SDS011;68119;43.398;3.676;2023-07-13T01:55:08;4.50;;;2.90;;
78774;SDS011;68119;43.398;3.676;2023-07-13T01:57:47;5.88;;;3.03;;
78774;SDS011;68119;43.398;3.676;2023-07-13T02:00:19;5.93;;;2.50;;
78774;SDS011;68119;43.398;3.676;2023-07-13T02:02:45;5.72;;;2.97;;
78774;SDS011;68119;43.398;3.676;2023-07-13T02:05:17;5.97;;;2.70;;
78774;SDS011;68119;43.398;3.676;2023-07-13T02:07:43;4.88;;;2.53;;
78774;SDS011;68119;43.398;3.676;2023-07-13T02:10:17;6.05;;;2.75;;
78774;SDS011;68119;43.398;3.676;2023-07-13T02:12:49;6.20;;;2.72;;
78774;SDS011;68119;43.398;3.676;2023-07-13T02:15:28;6.40;;;2.70;;
78774;SDS011;68119;43.398;3.676;2023-07-13T02:17:57;4.78;;;2.60;;
78774;SDS011;68119;43.398;3.676;2023-07-13T02:20:26;6.60;;;2.85;;
78774;SDS011;68119;43.398;3.676;2023-07-13T02:22:56;11.00;;;3.15;;
78774;SDS011;68119;43.398;3.676;2023-07-13T02:25:25;5.15;;;2.78;;
78774;SDS011;68119;43.398;3.676;2023-07-13T02:27:52;4.25;;;2.50;;
78774;SDS011;68119;43.398;3.676;2023-07-13T02:30:21;6.55;;;3.00;;
78774;SDS011;68119;43.398;3.676;2023-07-13T02:32:52;9.48;;;2.85;;
78774;SDS011;68119;43.398;3.676;2023-07-13T02:35:18;4.68;;;2.80;;
78774;SDS011;68119;43.398;3.676;2023-07-13T02:37:47;4.97;;;2.80;;
78774;SDS011;68119;43.398;3.676;2023-07-13T02:40:15;4.25;;;2.90;;
78774;SDS011;68119;43.398;3.676;2023-07-13T02:42:47;4.75;;;2.80;;
78774;SDS011;68119;43.398;3.676;2023-07-13T02:45:16;5.45;;;2.85;;
78774;SDS011;68119;43.398;3.676;2023-07-13T02:47:48;8.50;;;2.95;;
78774;SDS011;68119;43.398;3.676;2023-07-13T02:50:14;4.30;;;2.55;;
78774;SDS011;68119;43.398;3.676;2023-07-13T02:52:45;6.38;;;2.70;;
78774;SDS011;68119;43.398;3.676;2023-07-13T02:55:14;4.13;;;2.80;;
78774;SDS011;68119;43.398;3.676;2023-07-13T02:57:45;6.57;;;2.80;;
78774;SDS011;68119;43.398;3.676;2023-07-13T03:00:18;4.68;;;2.90;;
78774;SDS011;68119;43.398;3.676;2023-07-13T03:02:47;4.78;;;2.50;;
78774;SDS011;68119;43.398;3.676;2023-07-13T03:05:16;4.55;;;2.35;;
78774;SDS011;68119;43.398;3.676;2023-07-13T03:07:47;6.68;;;2.50;;
78774;SDS011;68119;43.398;3.676;2023-07-13T03:10:20;3.58;;;2.47;;
78774;SDS011;68119;43.398;3.676;2023-07-13T03:12:51;5.10;;;2.53;;
78774;SDS011;68119;43.398;3.676;2023-07-13T03:15:20;4.07;;;2.53;;
78774;SDS011;68119;43.398;3.676;2023-07-13T03:17:51;4.93;;;2.75;;
78774;SDS011;68119;43.398;3.676;2023-07-13T03:20:18;6.95;;;2.75;;
78774;SDS011;68119;43.398;3.676;2023-07-13T03:22:47;4.38;;;2.40;;
78774;SDS011;68119;43.398;3.676;2023-07-13T03:25:19;5.78;;;2.90;;
78774;SDS011;68119;43.398;3.676;2023-07-13T03:30:13;6.38;;;2.60;;
78774;SDS011;68119;43.398;3.676;2023-07-13T03:32:43;4.53;;;2.78;;
78774;SDS011;68119;43.398;3.676;2023-07-13T03:35:11;5.90;;;2.80;;
78774;SDS011;68119;43.398;3.676;2023-07-13T03:37:43;5.53;;;2.88;;
78774;SDS011;68119;43.398;3.676;2023-07-13T03:40:14;5.40;;;2.58;;
78774;SDS011;68119;43.398;3.676;2023-07-13T03:42:43;7.18;;;3.20;;
78774;SDS011;68119;43.398;3.676;2023-07-13T03:45:15;6.07;;;2.92;;
78774;SDS011;68119;43.398;3.676;2023-07-13T03:47:43;5.35;;;2.63;;
78774;SDS011;68119;43.398;3.676;2023-07-13T03:50:10;3.47;;;2.63;;
78774;SDS011;68119;43.398;3.676;2023-07-13T03:52:42;5.43;;;2.65;;
78774;SDS011;68119;43.398;3.676;2023-07-13T03:55:14;5.38;;;2.78;;
78774;SDS011;68119;43.398;3.676;2023-07-13T03:57:44;5.78;;;2.70;;
78774;SDS011;68119;43.398;3.676;2023-07-13T04:00:10;4.28;;;2.90;;
78774;SDS011;68119;43.398;3.676;2023-07-13T04:02:44;6.07;;;2.80;;
78774;SDS011;68119;43.398;3.676;2023-07-13T04:05:17;6.60;;;3.00;;
78774;SDS011;68119;43.398;3.676;2023-07-13T04:07:46;5.57;;;2.60;;
78774;SDS011;68119;43.398;3.676;2023-07-13T04:10:18;5.65;;;2.70;;
78774;SDS011;68119;43.398;3.676;2023-07-13T04:12:51;5.38;;;2.67;;
78774;SDS011;68119;43.398;3.676;2023-07-13T04:15:19;4.22;;;2.80;;
78774;SDS011;68119;43.398;3.676;2023-07-13T04:17:51;4.35;;;2.67;;
78774;SDS011;68119;43.398;3.676;2023-07-13T04:20:17;6.32;;;2.80;;
78774;SDS011;68119;43.398;3.676;2023-07-13T04:22:49;4.03;;;2.55;;
78774;SDS011;68119;43.398;3.676;2023-07-13T04:25:26;5.85;;;2.60;;
78774;SDS011;68119;43.398;3.676;2023-07-13T04:27:55;6.45;;;2.97;;
78774;SDS011;68119;43.398;3.676;2023-07-13T04:30:32;6.72;;;2.90;;
78774;SDS011;68119;43.398;3.676;2023-07-13T04:33:08;5.28;;;2.88;;
78774;SDS011;68119;43.398;3.676;2023-07-13T04:35:46;5.72;;;2.80;;
78774;SDS011;68119;43.398;3.676;2023-07-13T04:38:15;7.72;;;3.10;;
78774;SDS011;68119;43.398;3.676;2023-07-13T04:40:46;4.38;;;2.58;;
78774;SDS011;68119;43.398;3.676;2023-07-13T04:43:23;5.22;;;2.80;;
78774;SDS011;68119;43.398;3.676;2023-07-13T04:45:55;4.30;;;2.42;;
78774;SDS011;68119;43.398;3.676;2023-07-13T04:48:46;4.32;;;2.80;;
78774;SDS011;68119;43.398;3.676;2023-07-13T04:51:24;4.53;;;2.42;;
78774;SDS011;68119;43.398;3.676;2023-07-13T04:54:11;4.38;;;2.50;;
78774;SDS011;68119;43.398;3.676;2023-07-13T04:56:39;6.97;;;3.05;;
78774;SDS011;68119;43.398;3.676;2023-07-13T04:59:08;3.90;;;2.50;;
78774;SDS011;68119;43.398;3.676;2023-07-13T05:01:40;5.72;;;2.70;;
78774;SDS011;68119;43.398;3.676;2023-07-13T05:04:09;3.90;;;2.42;;
78774;SDS011;68119;43.398;3.676;2023-07-13T05:06:40;3.25;;;2.35;;
78774;SDS011;68119;43.398;3.676;2023-07-13T05:09:06;6.13;;;2.60;;
78774;SDS011;68119;43.398;3.676;2023-07-13T05:11:40;4.28;;;2.28;;
78774;SDS011;68119;43.398;3.676;2023-07-13T05:14:14;5.47;;;2.40;;
78774;SDS011;68119;43.398;3.676;2023-07-13T05:16:48;3.58;;;2.17;;
78774;SDS011;68119;43.398;3.676;2023-07-13T05:19:22;5.95;;;2.40;;
78774;SDS011;68119;43.398;3.676;2023-07-13T05:21:51;4.45;;;2.33;;
78774;SDS011;68119;43.398;3.676;2023-07-13T05:24:25;4.35;;;2.25;;
78774;SDS011;68119;43.398;3.676;2023-07-13T05:27:00;3.60;;;2.03;;
78774;SDS011;68119;43.398;3.676;2023-07-13T05:29:28;3.50;;;2.17;;
78774;SDS011;68119;43.398;3.676;2023-07-13T05:32:03;4.75;;;2.38;;
78774;SDS011;68119;43.398;3.676;2023-07-13T05:34:34;2.75;;;2.10;;
78774;SDS011;68119;43.398;3.676;2023-07-13T05:37:00;7.78;;;2.20;;
78774;SDS011;68119;43.398;3.676;2023-07-13T05:39:31;4.55;;;1.90;;
78774;SDS011;68119;43.398;3.676;2023-07-13T05:41:58;3.42;;;2.15;;
78774;SDS011;68119;43.398;3.676;2023-07-13T05:44:27;4.10;;;2.00;;
78774;SDS011;68119;43.398;3.676;2023-07-13T05:46:58;2.75;;;1.90;;
78774;SDS011;68119;43.398;3.676;2023-07-13T05:49:25;4.50;;;2.08;;
78774;SDS011;68119;43.398;3.676;2023-07-13T05:51:58;3.72;;;2.20;;
78774;SDS011;68119;43.398;3.676;2023-07-13T05:54:29;2.92;;;2.05;;
78774;SDS011;68119;43.398;3.676;2023-07-13T05:57:01;3.42;;;2.00;;
78774;SDS011;68119;43.398;3.676;2023-07-13T05:59:30;5.00;;;2.38;;
78774;SDS011;68119;43.398;3.676;2023-07-13T06:02:02;4.32;;;1.98;;
78774;SDS011;68119;43.398;3.676;2023-07-13T06:04:28;3.70;;;2.00;;
78774;SDS011;68119;43.398;3.676;2023-07-13T06:07:00;3.22;;;1.85;;
78774;SDS011;68119;43.398;3.676;2023-07-13T06:09:41;4.88;;;2.03;;
78774;SDS011;68119;43.398;3.676;2023-07-13T06:12:10;3.78;;;1.90;;
78774;SDS011;68119;43.398;3.676;2023-07-13T06:14:42;4.28;;;2.15;;
78774;SDS011;68119;43.398;3.676;2023-07-13T06:17:11;3.60;;;1.80;;
78774;SDS011;68119;43.398;3.676;2023-07-13T06:19:40;4.00;;;1.90;;
78774;SDS011;68119;43.398;3.676;2023-07-13T06:22:09;2.65;;;1.77;;
78774;SDS011;68119;43.398;3.676;2023-07-13T06:24:38;4.38;;;2.05;;
78774;SDS011;68119;43.398;3.676;2023-07-13T06:27:07;2.42;;;1.73;;
78774;SDS011;68119;43.398;3.676;2023-07-13T06:29:36;4.13;;;1.75;;
78774;SDS011;68119;43.398;3.676;2023-07-13T06:32:05;9.02;;;2.08;;
78774;SDS011;68119;43.398;3.676;2023-07-13T06:34:35;2.10;;;1.73;;
78774;SDS011;68119;43.398;3.676;2023-07-13T06:37:04;3.33;;;1.48;;
78774;SDS011;68119;43.398;3.676;2023-07-13T06:39:30;2.33;;;1.50;;
78774;SDS011;68119;43.398;3.676;2023-07-13T06:41:59;3.88;;;1.40;;
78774;SDS011;68119;43.398;3.676;2023-07-13T06:44:28;4.07;;;1.80;;
78774;SDS011;68119;43.398;3.676;2023-07-13T06:46:59;3.53;;;1.70;;
78774;SDS011;68119;43.398;3.676;2023-07-13T06:49:28;3.92;;;1.73;;
78774;SDS011;68119;43.398;3.676;2023-07-13T06:52:03;7.95;;;1.73;;
78774;SDS011;68119;43.398;3.676;2023-07-13T06:54:32;2.85;;;1.65;;
78774;SDS011;68119;43.398;3.676;2023-07-13T06:59:28;7.45;;;1.70;;
78774;SDS011;68119;43.398;3.676;2023-07-13T07:01:57;3.78;;;1.85;;
78774;SDS011;68119;43.398;3.676;2023-07-13T07:04:26;9.95;;;2.00;;
78774;SDS011;68119;43.398;3.676;2023-07-13T07:06:54;7.10;;;1.85;;
78774;SDS011;68119;43.398;3.676;2023-07-13T07:09:26;3.58;;;1.52;;
78774;SDS011;68119;43.398;3.676;2023-07-13T07:11:54;4.55;;;1.70;;
78774;SDS011;68119;43.398;3.676;2023-07-13T07:14:26;6.38;;;1.60;;
78774;SDS011;68119;43.398;3.676;2023-07-13T07:16:54;6.68;;;1.50;;
78774;SDS011;68119;43.398;3.676;2023-07-13T07:19:23;2.03;;;1.38;;
78774;SDS011;68119;43.398;3.676;2023-07-13T07:21:55;4.75;;;1.92;;
78774;SDS011;68119;43.398;3.676;2023-07-13T07:24:24;2.60;;;1.58;;
78774;SDS011;68119;43.398;3.676;2023-07-13T07:26:59;6.82;;;1.70;;
78774;SDS011;68119;43.398;3.676;2023-07-13T07:29:30;4.80;;;1.70;;
78774;SDS011;68119;43.398;3.676;2023-07-13T07:31:59;4.05;;;1.58;;
78774;SDS011;68119;43.398;3.676;2023-07-13T07:34:25;3.30;;;1.52;;
78774;SDS011;68119;43.398;3.676;2023-07-13T07:36:54;6.53;;;1.52;;
78774;SDS011;68119;43.398;3.676;2023-07-13T07:39:23;3.97;;;1.67;;
78774;SDS011;68119;43.398;3.676;2023-07-13T07:41:52;6.95;;;1.85;;
78774;SDS011;68119;43.398;3.676;2023-07-13T07:44:21;7.38;;;1.85;;
78774;SDS011;68119;43.398;3.676;2023-07-13T07:46:53;6.82;;;1.88;;
78774;SDS011;68119;43.398;3.676;2023-07-13T07:49:22;4.18;;;1.60;;
78774;SDS011;68119;43.398;3.676;2023-07-13T07:51:51;2.65;;;1.40;;
78774;SDS011;68119;43.398;3.676;2023-07-13T07:54:22;2.97;;;1.58;;
78774;SDS011;68119;43.398;3.676;2023-07-13T07:56:53;4.78;;;1.90;;
78774;SDS011;68119;43.398;3.676;2023-07-13T07:59:20;8.02;;;1.92;;
78774;SDS011;68119;43.398;3.676;2023-07-13T08:01:51;3.80;;;1.58;;
78774;SDS011;68119;43.398;3.676;2023-07-13T08:04:17;4.07;;;1.70;;
78774;SDS011;68119;43.398;3.676;2023-07-13T08:06:46;3.28;;;1.40;;
78774;SDS011;68119;43.398;3.676;2023-07-13T08:09:17;5.82;;;2.10;;
78774;SDS011;68119;43.398;3.676;2023-07-13T08:11:46;7.70;;;1.90;;
78774;SDS011;68119;43.398;3.676;2023-07-13T08:14:18;3.10;;;1.70;;
78774;SDS011;68119;43.398;3.676;2023-07-13T08:16:45;2.95;;;1.58;;
78774;SDS011;68119;43.398;3.676;2023-07-13T08:19:13;3.70;;;1.80;;
78774;SDS011;68119;43.398;3.676;2023-07-13T08:21:43;5.20;;;1.65;;
78774;SDS011;68119;43.398;3.676;2023-07-13T08:24:12;2.35;;;1.55;;
78774;SDS011;68119;43.398;3.676;2023-07-13T08:26:43;4.22;;;1.52;;
78774;SDS011;68119;43.398;3.676;2023-07-13T08:29:12;3.08;;;1.48;;
78774;SDS011;68119;43.398;3.676;2023-07-13T08:31:44;5.43;;;1.80;;
78774;SDS011;68119;43.398;3.676;2023-07-13T08:34:16;3.78;;;1.60;;
78774;SDS011;68119;43.398;3.676;2023-07-13T08:36:45;3.42;;;1.80;;
78774;SDS011;68119;43.398;3.676;2023-07-13T08:39:12;5.22;;;1.90;;
78774;SDS011;68119;43.398;3.676;2023-07-13T08:41:41;4.50;;;1.73;;
78774;SDS011;68119;43.398;3.676;2023-07-13T08:44:23;5.15;;;1.63;;
78774;SDS011;68119;43.398;3.676;2023-07-13T08:46:54;2.35;;;1.63;;
78774;SDS011;68119;43.398;3.676;2023-07-13T08:49:25;4.10;;;1.60;;
78774;SDS011;68119;43.398;3.676;2023-07-13T08:51:58;5.30;;;1.70;;
78774;SDS011;68119;43.398;3.676;2023-07-13T08:54:49;8.07;;;1.80;;
78774;SDS011;68119;43.398;3.676;2023-07-13T08:57:22;3.08;;;1.42;;
78774;SDS011;68119;43.398;3.676;2023-07-13T08:59:53;3.63;;;1.80;;
78774;SDS011;68119;43.398;3.676;2023-07-13T09:02:43;6.43;;;1.88;;
78774;SDS011;68119;43.398;3.676;2023-07-13T09:05:18;3.58;;;1.67;;
78774;SDS011;68119;43.398;3.676;2023-07-13T09:10:39;3.28;;;1.63;;
78774;SDS011;68119;43.398;3.676;2023-07-13T09:15:48;8.45;;;1.98;;
78774;SDS011;68119;43.398;3.676;2023-07-13T09:18:20;3.45;;;1.73;;
78774;SDS011;68119;43.398;3.676;2023-07-13T09:21:09;3.72;;;1.80;;
78774;SDS011;68119;43.398;3.676;2023-07-13T09:23:39;2.45;;;1.70;;
78774;SDS011;68119;43.398;3.676;2023-07-13T09:26:09;4.53;;;1.90;;
78774;SDS011;68119;43.398;3.676;2023-07-13T09:28:41;7.88;;;2.00;;
78774;SDS011;68119;43.398;3.676;2023-07-13T09:33:39;4.55;;;2.58;;
78774;SDS011;68119;43.398;3.676;2023-07-13T09:36:25;5.38;;;1.92;;
78774;SDS011;68119;43.398;3.676;2023-07-13T09:44:11;3.90;;;2.20;;
78774;SDS011;68119;43.398;3.676;2023-07-13T09:46:38;4.47;;;1.65;;
78774;SDS011;68119;43.398;3.676;2023-07-13T09:49:11;5.93;;;2.00;;
78774;SDS011;68119;43.398;3.676;2023-07-13T09:51:40;2.97;;;1.77;;
78774;SDS011;68119;43.398;3.676;2023-07-13T09:54:21;4.70;;;1.92;;
78774;SDS011;68119;43.398;3.676;2023-07-13T09:56:53;3.80;;;2.03;;
78774;SDS011;68119;43.398;3.676;2023-07-13T09:59:22;4.82;;;1.80;;
78774;SDS011;68119;43.398;3.676;2023-07-13T10:01:51;3.03;;;1.70;;
78774;SDS011;68119;43.398;3.676;2023-07-13T10:04:26;2.92;;;1.90;;
78774;SDS011;68119;43.398;3.676;2023-07-13T10:06:58;5.72;;;2.08;;
78774;SDS011;68119;43.398;3.676;2023-07-13T10:09:32;6.43;;;1.80;;
78774;SDS011;68119;43.398;3.676;2023-07-13T10:12:01;5.28;;;1.80;;
78774;SDS011;68119;43.398;3.676;2023-07-13T10:14:30;3.35;;;1.70;;
78774;SDS011;68119;43.398;3.676;2023-07-13T10:17:04;4.10;;;2.00;;
78774;SDS011;68119;43.398;3.676;2023-07-13T10:19:37;5.53;;;2.08;;
78774;SDS011;68119;43.398;3.676;2023-07-13T10:24:51;4.05;;;2.05;;
78774;SDS011;68119;43.398;3.676;2023-07-13T10:27:19;6.43;;;1.88;;
78774;SDS011;68119;43.398;3.676;2023-07-13T10:32:25;3.47;;;1.90;;
78774;SDS011;68119;43.398;3.676;2023-07-13T10:34:52;7.63;;;1.92;;
78774;SDS011;68119;43.398;3.676;2023-07-13T10:37:25;2.85;;;1.80;;
78774;SDS011;68119;43.398;3.676;2023-07-13T10:39:53;3.40;;;1.80;;
78774;SDS011;68119;43.398;3.676;2023-07-13T10:42:28;4.15;;;2.13;;
78774;SDS011;68119;43.398;3.676;2023-07-13T10:44:57;3.42;;;1.98;;
78774;SDS011;68119;43.398;3.676;2023-07-13T10:47:26;4.85;;;1.92;;
78774;SDS011;68119;43.398;3.676;2023-07-13T10:49:59;4.13;;;2.25;;
78774;SDS011;68119;43.398;3.676;2023-07-13T10:52:48;4.03;;;1.92;;
78774;SDS011;68119;43.398;3.676;2023-07-13T10:58:13;4.80;;;2.20;;
78774;SDS011;68119;43.398;3.676;2023-07-13T11:00:44;5.27;;;2.20;;
78774;SDS011;68119;43.398;3.676;2023-07-13T11:05:39;3.08;;;1.90;;
78774;SDS011;68119;43.398;3.676;2023-07-13T11:13:29;7.78;;;2.17;;
78774;SDS011;68119;43.398;3.676;2023-07-13T11:15:56;7.00;;;2.10;;
78774;SDS011;68119;43.398;3.676;2023-07-13T11:18:27;10.32;;;2.00;;
78774;SDS011;68119;43.398;3.676;2023-07-13T11:21:18;6.45;;;1.85;;
78774;SDS011;68119;43.398;3.676;2023-07-13T11:23:45;4.50;;;1.92;;
78774;SDS011;68119;43.398;3.676;2023-07-13T11:29:08;2.97;;;1.80;;
78774;SDS011;68119;43.398;3.676;2023-07-13T11:31:36;6.18;;;2.33;;
78774;SDS011;68119;43.398;3.676;2023-07-13T11:34:06;4.15;;;1.80;;
78774;SDS011;68119;43.398;3.676;2023-07-13T11:36:44;3.33;;;1.80;;
78774;SDS011;68119;43.398;3.676;2023-07-13T11:41:53;6.63;;;2.10;;
78774;SDS011;68119;43.398;3.676;2023-07-13T11:44:22;4.80;;;2.00;;
78774;SDS011;68119;43.398;3.676;2023-07-13T11:46:50;3.42;;;1.80;;
78774;SDS011;68119;43.398;3.676;2023-07-13T11:49:20;5.60;;;1.98;;
78774;SDS011;68119;43.398;3.676;2023-07-13T11:51:49;4.00;;;1.75;;
78774;SDS011;68119;43.398;3.676;2023-07-13T11:56:48;4.38;;;1.85;;
78774;SDS011;68119;43.398;3.676;2023-07-13T11:59:15;4.18;;;2.00;;
78774;SDS011;68119;43.398;3.676;2023-07-13T12:01:46;2.58;;;1.80;;
78774;SDS011;68119;43.398;3.676;2023-07-13T12:04:24;2.65;;;1.73;;
78774;SDS011;68119;43.398;3.676;2023-07-13T12:07:06;4.03;;;1.80;;
78774;SDS011;68119;43.398;3.676;2023-07-13T12:09:34;2.47;;;1.80;;
78774;SDS011;68119;43.398;3.676;2023-07-13T12:12:08;3.97;;;1.85;;
78774;SDS011;68119;43.398;3.676;2023-07-13T12:14:36;3.60;;;1.63;;
78774;SDS011;68119;43.398;3.676;2023-07-13T12:17:03;2.80;;;1.80;;
78774;SDS011;68119;43.398;3.676;2023-07-13T12:19:34;2.78;;;1.70;;
78774;SDS011;68119;43.398;3.676;2023-07-13T12:22:03;3.25;;;1.70;;
78774;SDS011;68119;43.398;3.676;2023-07-13T12:24:32;2.20;;;1.50;;
78774;SDS011;68119;43.398;3.676;2023-07-13T12:27:03;3.47;;;1.80;;
78774;SDS011;68119;43.398;3.676;2023-07-13T12:29:38;1.95;;;1.73;;
78774;SDS011;68119;43.398;3.676;2023-07-13T12:32:16;6.45;;;1.90;;
78774;SDS011;68119;43.398;3.676;2023-07-13T12:34:51;3.75;;;1.83;;
78774;SDS011;68119;43.398;3.676;2023-07-13T12:37:21;3.08;;;1.52;;
78774;SDS011;68119;43.398;3.676;2023-07-13T12:42:31;2.95;;;1.45;;
78774;SDS011;68119;43.398;3.676;2023-07-13T12:45:02;3.80;;;1.52;;
78774;SDS011;68119;43.398;3.676;2023-07-13T12:47:30;2.33;;;1.50;;
78774;SDS011;68119;43.398;3.676;2023-07-13T12:49:59;2.40;;;1.35;;
78774;SDS011;68119;43.398;3.676;2023-07-13T12:52:31;3.08;;;1.50;;
78774;SDS011;68119;43.398;3.676;2023-07-13T12:55:07;3.47;;;1.63;;
78774;SDS011;68119;43.398;3.676;2023-07-13T13:02:52;2.13;;;1.50;;
78774;SDS011;68119;43.398;3.676;2023-07-13T13:10:19;2.47;;;1.27;;
78774;SDS011;68119;43.398;3.676;2023-07-13T13:12:49;4.22;;;1.80;;
78774;SDS011;68119;43.398;3.676;2023-07-13T13:17:49;2.83;;;1.38;;
78774;SDS011;68119;43.398;3.676;2023-07-13T13:20:26;2.70;;;1.30;;
78774;SDS011;68119;43.398;3.676;2023-07-13T13:22:52;3.92;;;1.50;;
78774;SDS011;68119;43.398;3.676;2023-07-13T13:25:20;2.20;;;1.42;;
78774;SDS011;68119;43.398;3.676;2023-07-13T13:27:51;3.07;;;1.60;;
78774;SDS011;68119;43.398;3.676;2023-07-13T13:30:25;5.22;;;1.40;;
78774;SDS011;68119;43.398;3.676;2023-07-13T13:32:54;2.33;;;1.38;;
78774;SDS011;68119;43.398;3.676;2023-07-13T13:35:20;3.00;;;1.50;;
78774;SDS011;68119;43.398;3.676;2023-07-13T13:40:33;4.32;;;1.45;;
78774;SDS011;68119;43.398;3.676;2023-07-13T13:42:59;2.33;;;1.55;;
78774;SDS011;68119;43.398;3.676;2023-07-13T13:45:25;1.50;;;1.40;;
78774;SDS011;68119;43.398;3.676;2023-07-13T13:47:55;2.35;;;1.30;;
78774;SDS011;68119;43.398;3.676;2023-07-13T13:50:21;1.95;;;1.30;;
78774;SDS011;68119;43.398;3.676;2023-07-13T13:52:50;3.97;;;1.48;;
78774;SDS011;68119;43.398;3.676;2023-07-13T13:55:20;2.63;;;1.40;;
78774;SDS011;68119;43.398;3.676;2023-07-13T13:57:51;2.33;;;1.30;;
78774;SDS011;68119;43.398;3.676;2023-07-13T14:00:23;3.28;;;1.45;;
78774;SDS011;68119;43.398;3.676;2023-07-13T14:02:50;3.17;;;1.60;;
78774;SDS011;68119;43.398;3.676;2023-07-13T14:05:22;3.00;;;1.40;;
78774;SDS011;68119;43.398;3.676;2023-07-13T14:10:20;2.67;;;1.33;;
78774;SDS011;68119;43.398;3.676;2023-07-13T14:12:47;2.00;;;1.40;;
78774;SDS011;68119;43.398;3.676;2023-07-13T14:17:45;2.40;;;1.30;;
78774;SDS011;68119;43.398;3.676;2023-07-13T14:20:15;2.55;;;1.23;;
78774;SDS011;68119;43.398;3.676;2023-07-13T14:22:45;2.88;;;1.42;;
78774;SDS011;68119;43.398;3.676;2023-07-13T14:25:18;2.78;;;1.40;;
78774;SDS011;68119;43.398;3.676;2023-07-13T14:27:54;2.65;;;1.50;;
78774;SDS011;68119;43.398;3.676;2023-07-13T14:30:26;2.30;;;1.27;;
78774;SDS011;68119;43.398;3.676;2023-07-13T14:32:52;7.13;;;1.73;;
78774;SDS011;68119;43.398;3.676;2023-07-13T14:35:21;3.00;;;1.30;;
78774;SDS011;68119;43.398;3.676;2023-07-13T14:37:51;2.03;;;1.50;;
78774;SDS011;68119;43.398;3.676;2023-07-13T14:40:25;1.52;;;1.42;;
78774;SDS011;68119;43.398;3.676;2023-07-13T14:42:54;1.90;;;1.55;;
78774;SDS011;68119;43.398;3.676;2023-07-13T14:45:23;4.45;;;1.55;;
78774;SDS011;68119;43.398;3.676;2023-07-13T14:47:54;2.92;;;1.40;;
78774;SDS011;68119;43.398;3.676;2023-07-13T14:50:22;2.63;;;1.38;;
78774;SDS011;68119;43.398;3.676;2023-07-13T14:52:54;3.03;;;1.70;;
78774;SDS011;68119;43.398;3.676;2023-07-13T14:55:23;3.35;;;1.33;;
78774;SDS011;68119;43.398;3.676;2023-07-13T14:57:53;2.65;;;1.38;;
78774;SDS011;68119;43.398;3.676;2023-07-13T15:00:25;2.75;;;1.60;;
78774;SDS011;68119;43.398;3.676;2023-07-13T15:02:53;4.68;;;1.50;;
78774;SDS011;68119;43.398;3.676;2023-07-13T15:05:25;3.72;;;1.60;;
78774;SDS011;68119;43.398;3.676;2023-07-13T15:07:58;2.97;;;1.42;;
78774;SDS011;68119;43.398;3.676;2023-07-13T15:10:28;4.80;;;1.42;;
78774;SDS011;68119;43.398;3.676;2023-07-13T15:12:59;3.33;;;1.30;;
78774;SDS011;68119;43.398;3.676;2023-07-13T15:15:29;3.00;;;1.30;;
78774;SDS011;68119;43.398;3.676;2023-07-13T15:17:58;2.92;;;1.55;;
78774;SDS011;68119;43.398;3.676;2023-07-13T15:22:56;4.07;;;1.40;;
78774;SDS011;68119;43.398;3.676;2023-07-13T15:25:24;2.40;;;1.53;;
78774;SDS011;68119;43.398;3.676;2023-07-13T15:27:54;5.20;;;1.52;;
78774;SDS011;68119;43.398;3.676;2023-07-13T15:30:23;2.75;;;1.55;;
78774;SDS011;68119;43.398;3.676;2023-07-13T15:32:57;5.07;;;1.80;;
78774;SDS011;68119;43.398;3.676;2023-07-13T15:35:27;3.40;;;1.50;;
78774;SDS011;68119;43.398;3.676;2023-07-13T15:37:56;2.97;;;1.60;;
78774;SDS011;68119;43.398;3.676;2023-07-13T15:40:22;1.73;;;1.38;;
78774;SDS011;68119;43.398;3.676;2023-07-13T15:42:52;2.50;;;1.48;;
78774;SDS011;68119;43.398;3.676;2023-07-13T15:45:22;6.03;;;1.60;;
78774;SDS011;68119;43.398;3.676;2023-07-13T15:47:50;3.22;;;1.80;;
78774;SDS011;68119;43.398;3.676;2023-07-13T15:50:22;2.87;;;1.60;;
78774;SDS011;68119;43.398;3.676;2023-07-13T15:55:17;3.15;;;1.60;;
78774;SDS011;68119;43.398;3.676;2023-07-13T15:57:49;2.95;;;1.48;;
78774;SDS011;68119;43.398;3.676;2023-07-13T16:00:23;3.40;;;1.50;;
78774;SDS011;68119;43.398;3.676;2023-07-13T16:02:49;3.60;;;1.58;;
78774;SDS011;68119;43.398;3.676;2023-07-13T16:05:19;3.05;;;1.60;;
78774;SDS011;68119;43.398;3.676;2023-07-13T16:07:50;4.43;;;1.50;;
78774;SDS011;68119;43.398;3.676;2023-07-13T16:10:27;4.80;;;1.88;;
78774;SDS011;68119;43.398;3.676;2023-07-13T16:13:00;3.22;;;1.60;;
78774;SDS011;68119;43.398;3.676;2023-07-13T16:15:32;1.85;;;1.30;;
78774;SDS011;68119;43.398;3.676;2023-07-13T16:17:58;3.25;;;1.55;;
78774;SDS011;68119;43.398;3.676;2023-07-13T16:20:27;1.75;;;1.30;;